Latest Weather Observations for Ceduna

IDS60801

Issued at 10:05 am CST Saturday 26 July 2014 (issued every 30 minutes, with the page automatically refreshed every 10 minutes)

About weather observations | Map of weather stations | Latest weather observations for SA | Other Formats
Station Details ID: 018012 Name: CEDUNA AMO Lat: -32.13 Lon: 133.70 Height: 15.3 m
Data from the previous 72 hours. | See also: Recent months at Ceduna
Date/Time
CST
Temp
°C
App
Temp
°C
Dew
Point
Rel
Hum
%
Delta-T
°C
Wind Press
QNH
hPa
Press
MSL
hPa
Rain
since 9 am
mm
Dir
 
Spd
km/h
Gust
km/h
Spd
kts
Gust
kts
26/10:00am 13.9 10.5 10.6 80 1.7 N 19 24 10 13 1028.0 - 0.0
26/09:30am 12.5 10.5 10.2 86 1.2 N 11 17 6 9 1027.9 1027.9 0.0
26/09:00am 11.0 9.8 9.6 91 0.7 NNE 6 9 3 5 1027.9 1027.9 0.2
26/08:30am 8.1 5.4 7.5 96 0.3 NNE 11 13 6 7 1027.6 1027.6 0.2
26/08:00am 6.2 3.1 5.5 95 0.3 NNE 11 13 6 7 1027.5 - 0.2
26/07:30am 5.7 2.5 5.2 97 0.2 NNE 11 13 6 7 1027.3 1027.3 0.2
26/07:00am 4.8 1.9 4.6 99 0.1 N 9 13 5 7 1027.1 - 0.2
26/06:30am 3.9 0.8 3.4 97 0.2 NNE 9 11 5 6 1026.7 1026.7 0.2
26/06:00am 3.7 0.3 1.9 88 0.7 NNE 9 11 5 6 1026.3 1026.3 0.2
26/05:30am 3.5 0.6 2.7 94 0.3 N 7 9 4 5 1026.1 1026.1 0.2
26/05:00am 3.5 0.7 3.0 97 0.2 N 7 9 4 5 1026.0 - 0.2
26/04:30am 4.5 1.8 3.5 93 0.4 NE 7 9 4 5 1025.9 1025.9 0.2
26/04:00am 4.2 1.5 3.7 97 0.2 NE 7 9 4 5 1025.6 - 0.2
26/03:30am 4.2 1.2 4.0 99 0.1 NE 9 11 5 6 1025.6 1025.6 0.2
26/03:00am 5.1 2.2 4.6 97 0.2 NE 9 11 5 6 1025.4 1025.4 0.2
26/02:30am 5.2 2.4 5.0 99 0.1 NE 9 13 5 7 1025.6 1025.6 0.2
26/02:00am 5.5 3.0 5.0 97 0.2 N 7 9 4 5 1025.6 - 0.2
26/01:30am 5.7 2.9 5.2 97 0.2 N 9 9 5 5 1025.7 1025.7 0.2
26/01:00am 5.8 3.5 5.6 99 0.1 NNE 7 9 4 5 1025.8 - 0.2
26/12:30am 6.5 3.9 6.1 97 0.2 N 9 11 5 6 1025.9 1025.9 0.2
26/12:26am 6.6 4.0 6.2 97 0.2 N 9 11 5 6 1025.9 - 0.2
26/12:08am 6.1 3.7 5.2 94 0.4 N 7 9 4 5 1025.8 - 0.2
26/12:00am 5.9 3.4 5.0 94 0.4 N 7 9 4 5 1025.8 1025.8 0.2
 
Date/Time
CST
Temp
°C
App
Temp
°C
Dew
Point
Rel
Hum
%
Delta-T
°C
Wind Press
QNH
hPa
Press
MSL
hPa
Rain
since 9 am
mm
Dir
 
Spd
km/h
Gust
km/h
Spd
kts
Gust
kts
25/11:30pm 6.3 3.6 5.8 97 0.2 N 9 9 5 5 1025.6 1025.6 0.2
25/11:00pm 6.5 4.3 6.1 97 0.2 N 7 9 4 5 1025.8 - 0.2
25/10:30pm 6.6 4.4 6.2 97 0.2 N 7 7 4 4 1025.7 1025.7 0.2
25/10:00pm 7.3 5.2 6.6 95 0.3 N 7 9 4 5 1025.6 - 0.2
25/09:30pm 6.6 4.4 6.4 99 0.1 N 7 7 4 4 1025.3 1025.3 0.2
25/09:00pm 7.8 5.8 7.2 96 0.3 N 7 9 4 5 1025.0 1025.0 0.2
25/08:30pm 8.3 6.4 7.7 96 0.3 W 7 9 4 5 1024.7 1024.7 0.2
25/08:00pm 8.1 7.5 7.2 94 0.4 CALM 0 0 0 0 1024.3 - 0.2
25/07:30pm 8.7 8.2 7.9 95 0.4 CALM 0 4 0 2 1024.0 1024.0 0.2
25/07:00pm 11.1 9.8 10.1 94 0.5 NNW 7 9 4 5 1023.9 - 0.2
25/06:30pm 11.9 11.0 10.7 92 0.6 NW 6 7 3 4 1023.7 1023.7 0.2
25/06:00pm 12.1 11.0 10.5 90 0.8 NW 7 7 4 4 1023.3 1023.3 0.2
25/05:30pm 13.2 11.8 10.9 86 1.2 NW 9 13 5 7 1022.8 1022.8 0.2
25/05:00pm 14.8 12.9 10.4 75 2.3 WSW 11 15 6 8 1022.5 - 0.2
25/04:30pm 14.5 12.2 10.3 76 2.2 WSW 13 19 7 10 1022.2 1022.2 0.2
25/04:00pm 14.6 11.5 10.2 75 2.3 W 17 22 9 12 1022.0 - 0.2
25/03:30pm 14.9 11.7 11.1 78 2.0 WSW 19 22 10 12 1021.7 1021.7 0.2
25/03:00pm 15.9 12.8 10.4 70 2.9 SW 17 20 9 11 1021.5 1021.5 0.2
25/02:30pm 15.4 12.2 10.0 70 2.8 SW 17 20 9 11 1021.3 1021.3 0.2
25/02:00pm 14.5 12.0 11.1 80 1.8 SW 15 20 8 11 1021.1 - 0.2
25/01:30pm 15.4 12.3 10.2 71 2.7 SW 17 22 9 12 1021.2 1021.2 0.2
25/01:00pm 16.2 13.7 9.7 65 3.4 W 13 17 7 9 1021.3 - 0.2
25/12:30pm 15.8 13.4 10.1 69 3.0 W 13 17 7 9 1021.5 1021.5 0.2
25/12:00pm 15.3 12.6 10.3 72 2.6 WNW 15 19 8 10 1021.8 1021.8 0.2
25/11:30am 15.2 12.2 10.8 75 2.3 WNW 17 22 9 12 1021.8 1021.8 0.2
25/11:00am 14.6 11.5 10.4 76 2.2 WNW 17 22 9 12 1021.9 - 0.2
25/10:30am 14.1 11.1 10.5 79 1.9 NW 17 22 9 12 1021.7 1021.7 0.2
25/10:00am 12.9 9.7 9.8 81 1.6 NW 17 22 9 12 1021.6 - 0.0
25/09:30am 11.9 9.0 9.5 85 1.2 NW 15 20 8 11 1021.5 1021.5 0.0
25/09:00am 10.4 7.6 8.6 89 0.9 NW 13 17 7 9 1021.2 1021.2 0.8
25/08:30am 9.1 6.2 8.1 93 0.5 NNW 13 15 7 8 1020.7 1020.7 0.8
25/08:00am 8.6 5.6 7.8 95 0.4 NW 13 15 7 8 1020.3 - 0.8
25/07:30am 8.4 5.4 7.5 94 0.4 NW 13 17 7 9 1019.8 1019.8 0.8
25/07:00am 8.8 5.9 8.0 95 0.4 NW 13 17 7 9 1019.4 - 0.8
25/06:30am 8.1 5.8 7.5 96 0.3 NW 9 11 5 6 1018.9 1018.9 0.8
25/06:00am 8.0 5.2 7.1 94 0.4 NNW 11 13 6 7 1018.5 1018.5 0.8
25/05:30am 8.2 5.5 7.3 94 0.4 NW 11 15 6 8 1018.0 1018.0 0.8
25/05:00am 8.4 5.8 7.6 95 0.4 NNW 11 15 6 8 1017.7 - 0.8
25/04:30am 8.8 6.3 8.0 95 0.4 NW 11 17 6 9 1017.6 1017.6 0.8
25/04:00am 9.0 6.5 8.2 95 0.4 NNW 11 17 6 9 1017.6 - 0.8
25/03:30am 9.4 7.4 8.8 96 0.3 N 9 11 5 6 1017.3 1017.3 0.8
25/03:00am 9.5 7.9 8.9 96 0.3 NNW 7 9 4 5 1017.1 1017.1 0.8
25/02:30am 9.8 7.9 9.0 95 0.4 NNW 9 11 5 6 1016.9 1016.9 0.8
25/02:00am 10.6 7.7 9.8 95 0.4 NW 15 20 8 11 1016.9 - 0.8
25/01:30am 11.2 7.1 10.0 92 0.6 WNW 22 30 12 16 1016.9 1016.9 0.8
25/01:00am 11.2 7.7 10.2 94 0.5 WNW 19 28 10 15 1016.9 - 0.8
25/12:43am 11.2 8.1 10.2 94 0.5 NW 17 26 9 14 1016.9 - 0.8
25/12:32am 11.2 7.7 10.2 94 0.5 NW 19 30 10 16 1016.9 - 0.8
25/12:30am 11.3 7.6 10.1 92 0.6 NW 20 30 11 16 1017.0 1017.0 0.8
25/12:00am 11.3 7.7 9.9 91 0.7 NW 19 28 10 15 1017.1 1017.1 0.6
 
Date/Time
CST
Temp
°C
App
Temp
°C
Dew
Point
Rel
Hum
%
Delta-T
°C
Wind Press
QNH
hPa
Press
MSL
hPa
Rain
since 9 am
mm
Dir
 
Spd
km/h
Gust
km/h
Spd
kts
Gust
kts
24/11:30pm 11.1 8.7 10.1 94 0.5 NNW 13 17 7 9 1016.8 1016.8 0.6
24/11:00pm 10.9 8.8 9.9 93 0.5 N 11 13 6 7 1016.7 - 0.6
24/10:30pm 10.9 8.8 9.9 93 0.5 N 11 13 6 7 1016.6 1016.6 0.6
24/10:00pm 10.4 8.2 9.4 93 0.5 N 11 13 6 7 1016.4 - 0.6
24/09:30pm 9.8 7.9 9.0 95 0.4 N 9 11 5 6 1016.2 1016.2 0.6
24/09:00pm 9.2 7.0 7.9 92 0.6 N 9 11 5 6 1016.0 1016.0 0.6
24/08:30pm 10.1 7.7 8.7 91 0.7 NNW 11 13 6 7 1015.8 1015.8 0.6
24/08:00pm 11.0 8.9 9.6 91 0.7 NNW 11 13 6 7 1015.6 - 0.6
24/07:30pm 11.6 9.5 9.8 89 0.9 NNW 11 13 6 7 1015.4 1015.4 0.6
24/07:00pm 12.3 10.3 10.0 86 1.2 NW 11 17 6 9 1015.1 - 0.6
24/06:30pm 13.3 10.9 10.0 80 1.7 WNW 13 17 7 9 1014.7 1014.7 0.6
24/06:00pm 13.2 10.4 9.9 80 1.7 W 15 20 8 11 1014.3 1014.3 0.6
24/05:30pm 14.2 10.5 9.5 73 2.4 W 19 28 10 15 1014.0 1014.0 0.6
24/05:00pm 15.0 12.6 10.0 72 2.6 W 13 19 7 10 1013.7 - 0.6
24/04:30pm 15.2 12.7 10.9 75 2.3 W 15 20 8 11 1013.6 1013.6 0.6
24/04:00pm 14.8 11.8 10.8 77 2.1 WNW 17 22 9 12 1013.6 - 0.6
24/03:30pm 14.9 10.5 10.3 74 2.4 W 24 30 13 16 1013.2 1013.2 0.6
24/03:00pm 15.9 12.3 10.6 71 2.8 WNW 20 30 11 16 1013.1 1013.1 0.6
24/02:30pm 16.0 12.6 11.4 74 2.5 NW 20 28 11 15 1013.1 1013.1 0.6
24/02:00pm 14.7 11.3 11.3 80 1.8 WNW 20 33 11 18 1013.0 - 0.6
24/01:30pm 15.9 12.3 11.9 77 2.2 WNW 22 33 12 18 1013.2 1013.2 0.6
24/01:00pm 15.6 13.5 12.3 81 1.8 NW 15 20 8 11 1013.3 - 0.4
24/12:30pm 13.8 10.3 11.0 83 1.5 WNW 20 30 11 16 1013.6 1013.6 0.4
24/12:00pm 16.9 13.6 11.6 71 2.9 WNW 20 28 11 15 1014.1 1014.1 0.0
24/11:30am 16.0 12.9 12.2 78 2.1 NW 20 30 11 16 1014.4 1014.4 0.0
24/11:00am 14.9 11.8 12.3 84 1.4 NW 20 30 11 16 1014.4 - 0.0
24/10:30am 13.4 10.6 11.3 87 1.1 NW 17 24 9 13 1014.3 1014.3 0.0
24/10:00am 13.2 10.4 11.5 89 0.9 NW 17 24 9 13 1014.3 - 0.0
24/09:30am 13.4 10.1 11.5 88 1.0 NW 20 30 11 16 1013.8 1013.8 0.0
24/09:20am 13.3 10.3 11.8 91 0.8 NW 19 26 10 14 1013.5 - 0.0
24/09:00am 12.6 9.6 11.8 95 0.4 WNW 19 28 10 15 1013.6 1013.6 6.6
24/08:30am 12.1 8.0 11.3 95 0.4 WNW 24 32 13 17 1013.3 1013.3 6.6
24/08:00am 11.9 8.7 11.1 95 0.4 NW 19 24 10 13 1012.9 - 6.6
24/07:51am 11.8 8.5 11.0 95 0.4 NW 19 26 10 14 1012.9 - 6.4
24/07:30am 11.7 8.4 10.9 95 0.4 WNW 19 28 10 15 1012.7 1012.7 6.4
24/07:00am 11.8 8.9 11.0 95 0.4 WNW 17 22 9 12 1012.6 - 5.8
24/06:30am 12.0 9.2 11.2 95 0.4 WNW 17 20 9 11 1012.3 1012.3 5.8
24/06:00am 12.1 8.3 11.1 94 0.5 NW 22 32 12 17 1012.0 1012.0 5.4
24/05:30am 11.9 7.6 10.9 94 0.5 NW 24 32 13 17 1011.8 1011.8 5.4
24/05:00am 11.9 7.6 10.9 94 0.5 NW 24 35 13 19 1011.6 - 5.4
24/04:30am 11.9 7.2 10.7 92 0.6 WNW 26 32 14 17 1011.4 1011.4 5.4
24/04:00am 11.7 7.4 10.7 94 0.5 WNW 24 30 13 16 1011.1 - 5.4
24/03:30am 11.8 7.9 10.8 94 0.5 WNW 22 30 12 16 1010.8 1010.8 5.4
24/03:00am 11.9 8.4 10.9 94 0.5 WNW 20 28 11 15 1010.7 1010.7 5.4
24/02:30am 11.9 8.4 10.9 94 0.5 NW 20 26 11 14 1010.9 1010.9 5.4
24/02:00am 11.9 8.3 10.7 92 0.6 WNW 20 24 11 13 1010.5 - 5.4
24/01:30am 12.1 8.6 11.0 93 0.6 NW 20 24 11 13 1010.3 1010.3 5.4
24/01:00am 12.0 8.5 10.8 92 0.6 NW 20 26 11 14 1010.2 - 5.4
24/12:30am 12.2 8.3 10.9 92 0.7 WNW 22 28 12 15 1010.1 1010.1 5.4
24/12:00am 12.4 8.1 10.9 90 0.8 WNW 24 33 13 18 1010.1 1010.1 5.4
 
Date/Time
CST
Temp
°C
App
Temp
°C
Dew
Point
Rel
Hum
%
Delta-T
°C
Wind Press
QNH
hPa
Press
MSL
hPa
Rain
since 9 am
mm
Dir
 
Spd
km/h
Gust
km/h
Spd
kts
Gust
kts
23/11:30pm 12.8 7.5 11.1 89 0.9 WNW 30 41 16 22 1010.0 1010.0 5.4
23/11:00pm 12.6 7.6 10.9 89 0.9 NW 28 35 15 19 1009.6 - 5.4
23/10:30pm 12.4 7.3 10.7 89 0.9 NW 28 37 15 20 1009.4 1009.4 5.4
23/10:00pm 12.9 9.5 11.4 91 0.8 NW 20 28 11 15 1009.6 - 5.4
23/09:30pm 13.0 7.2 10.9 87 1.1 W 32 41 17 22 1009.4 1009.4 5.2
23/09:15pm 13.1 8.9 11.0 87 1.1 W 24 41 13 22 1009.4 - 5.2
23/09:00pm 13.0 7.3 11.3 89 0.9 WNW 32 44 17 24 1009.2 1009.2 5.2
23/08:59pm 13.1 7.4 11.2 88 1.0 WNW 32 44 17 24 1009.2 - 5.2
23/08:30pm 13.8 7.3 10.4 80 1.8 W 35 48 19 26 1008.8 1008.8 4.2
23/08:00pm 13.6 7.8 10.9 84 1.4 WNW 32 41 17 22 1008.2 - 4.2
23/07:30pm 13.6 7.0 9.9 78 1.9 W 35 52 19 28 1007.6 1007.6 4.2
23/07:00pm 13.1 8.0 10.6 85 1.3 WNW 28 52 15 28 1007.2 - 4.2
23/06:38pm 12.8 7.5 11.1 89 0.9 NW 30 46 16 25 1006.7 - 4.2
23/06:30pm 12.8 7.5 11.1 89 0.9 NW 30 46 16 25 1006.5 1006.5 4.2
23/06:28pm 12.8 7.5 11.1 89 0.9 NW 30 39 16 21 1006.5 - 4.2
23/06:00pm 13.1 7.3 10.8 86 1.2 WNW 32 50 17 27 1006.0 1006.0 4.0
23/05:57pm 13.0 7.2 10.9 87 1.1 WNW 32 50 17 27 1005.9 - 4.0
23/05:30pm 12.9 7.1 11.6 92 0.7 NW 33 46 18 25 1005.6 1005.6 4.0
23/05:10pm 12.3 7.4 11.2 93 0.6 NNW 28 46 15 25 1005.3 - 3.6
23/05:04pm 12.2 6.9 11.1 93 0.6 NNW 30 39 16 21 1005.4 - 3.4
23/05:01pm 12.1 6.8 11.1 94 0.5 NNW 30 39 16 21 1005.4 - 3.4
23/05:00pm 12.1 6.4 11.0 93 0.6 NNW 32 41 17 22 1005.4 - 3.4
23/04:50pm 11.9 6.5 10.9 94 0.5 NNW 30 44 16 24 1005.3 - 3.2
23/04:37pm 11.7 5.2 10.5 92 0.6 N 35 48 19 26 1005.3 - 3.0
23/04:30pm 11.7 5.6 10.5 92 0.6 NNW 33 48 18 26 1005.2 1005.2 3.0
23/04:27pm 11.7 5.2 10.5 92 0.6 NNW 35 48 19 26 1005.2 - 3.0
23/04:21pm 11.7 4.8 10.3 91 0.7 NNW 37 50 20 27 1005.2 - 3.0
23/04:09pm 11.8 4.5 10.2 90 0.8 NNW 39 52 21 28 1005.2 - 3.0
23/04:07pm 11.7 4.0 10.1 90 0.8 NNW 41 59 22 32 1005.2 - 3.0
23/04:00pm 12.2 3.7 9.4 83 1.4 N 44 59 24 32 1005.2 - 3.0
23/03:30pm 13.0 3.6 8.6 74 2.2 NNW 48 67 26 36 1005.3 1005.3 3.0
23/03:00pm 14.2 6.1 6.8 61 3.6 NNW 39 57 21 31 1005.3 1005.3 3.0
23/02:31pm 14.4 5.4 6.3 58 3.9 NNW 43 61 23 33 1005.4 - 3.0
23/02:30pm 14.4 5.4 6.3 58 3.9 NNW 43 57 23 31 1005.4 1005.4 3.0
23/02:00pm 15.0 7.2 6.8 58 4.0 NNW 37 57 20 31 1005.6 - 3.0
23/01:30pm 15.5 6.6 6.7 55 4.3 NW 43 61 23 33 1005.8 1005.8 3.0
23/01:00pm 16.1 7.8 7.8 58 4.2 NW 41 59 22 32 1006.1 - 3.0
23/12:52pm 16.2 9.3 7.2 55 4.5 NNW 33 57 18 31 1006.2 - 3.0
23/12:30pm 15.7 9.8 9.1 65 3.4 NW 30 44 16 24 1006.8 1006.8 3.0
23/12:00pm 17.4 10.1 8.7 56 4.5 NNW 37 50 20 27 1007.4 1007.4 3.0
23/11:30am 16.2 9.7 8.8 61 3.8 NNW 33 46 18 25 1008.2 1008.2 3.0
23/11:10am 16.5 11.2 9.8 64 3.5 NNW 28 46 15 25 1008.4 - 3.0
23/11:00am 15.9 10.7 10.4 70 2.9 NNW 28 43 15 23 1008.5 - 3.0
23/10:30am 14.5 10.1 11.7 83 1.5 N 26 35 14 19 1008.8 1008.8 3.0
23/10:13am 13.7 9.4 12.2 91 0.8 NNW 26 37 14 20 1008.9 - 3.0
23/10:09am 13.9 10.2 12.6 92 0.7 NNW 24 37 13 20 1008.9 - 2.8

Other Formats:

Comma delimited format used in spreadsheet applications
http://www.bom.gov.au/fwo/IDS60801/IDS60801.94653.axf

JavaScript Object Notation format (JSON) in row-major order
http://www.bom.gov.au/fwo/IDS60801/IDS60801.94653.json